Terminal Aerodrome Forecast
Issued by NWS

Home | Current Version | Previous Version | Graphics & Text | Print | Product List | Glossary On
Versions: 1 2 3 4 5 6 7 8 9 10 11 12 13 14 15 16 17 18 19 20 21 22 23 24 25 26 27 28
000
FTUS43 KGRB 051700
TAFRHI
TAF
KRHI 051725Z 0518/0618 12010G16KT P6SM SKC
     FM060300 10005KT P6SM SCT070 BKN110
     FM061000 11004KT P6SM BKN035 OVC070 PROB30 0610/0615 -SHRA
     FM061500 13008KT P6SM -SHRA OVC035=

USA.gov is the U.S. government's official web portal to all federal, state and local government web resources and services.